SondeTracker

Meteorological Radiosondes Database

Operations

Sounding was ended - last measurement: 2022-12-06 13:23:27z

MAP
About Radiosonde

Number: D22035324 (22035324)

Launch Site: Spokane [WA] (US)

Type: DFM17

AUX: NO

Frequency: 403.211 MHz

Max Speed: 144 km/h at 29704 m

Average Speed: 84.78 km/h

Max Altitude: 33449 m

Average Ascent Speed: 4.85 m/s

Average Descent Speed: 18.92 m/s

Status: UNKNOWN

Status Changes
Launch Site Type AUX Frequency Status Finder Landing Point Description Changes made by
APRS Statistics

Received Frames: 411

First Frame [UTC]: 2022-12-06 11:14:19z

Last Frame [UTC]: 2022-12-06 13:23:27z

Receivers: K7MTD, KA7FVV, WA7BFN, WB7NNF

Flight Time: 02:09:08 h

Distance From First Measurement: 154.40 km

Nearest City: Moscow [ID] (US) [75.07 km]

Nearest Hunter: [0.00 km]

Ground Altitude: 1083 m

Distance from QTH: 0.00 km

APRS Data
Receiver Number Date/Time [UTC] φ λ Course [°] Speed [km/h] Altitude [m] Description
KA7FVVD220353242022-12-06 13:23:2746.8208-116.0221329812376Clb=-13.5m/s t=-58.5C h=-1.0% p=-1.0hPa 403.211 MHz Type=DFM17 ser=22035324 Radiosonde
K7MTDD220353242022-12-06 13:23:1246.8228-116.0251329612537Clb=-13.6m/s t=-57.6C h=-1.0% p=-1.0hPa 403.211 MHz Type=DFM17 ser=22035324 Radiosonde
KA7FVVD220353242022-12-06 13:22:4846.8257-116.031268912808Clb=-13.8m/s t=-56.8C h=-1.0% p=-1.0hPa 403.211 MHz Type=DFM17 ser=22035324 Radiosonde
K7MTDD220353242022-12-06 13:22:3146.8273-116.0331258112974Clb=-14.1m/s t=-56.6C h=-1.0% p=-1.0hPa 403.211 MHz Type=DFM17 ser=22035324 Radiosonde
KA7FVVD220353242022-12-06 13:22:0546.8293-116.0391168313254Clb=-13.8m/s t=-55.9C h=-1.0% p=-1.0hPa 403.211 MHz Type=DFM17 ser=22035324 Radiosonde
K7MTDD220353242022-12-06 13:21:5046.8303-116.0421138513407Clb=-14.1m/s t=-55.3C h=-1.0% p=-1.0hPa 403.211 MHz Type=DFM17 ser=22035324 Radiosonde
KA7FVVD220353242022-12-06 13:21:2946.8318-116.0471108313677Clb=-14.0m/s t=-56.3C h=-1.0% p=-1.0hPa 403.211 MHz Type=DFM17 ser=22035324 Radiosonde
K7MTDD220353242022-12-06 13:21:1446.8326-116.0511148713849Clb=-14.2m/s t=-56.1C h=-1.0% p=-1.0hPa 403.211 MHz Type=DFM17 ser=22035324 Radiosonde
KA7FVVD220353242022-12-06 13:20:5046.8344-116.0571109814126Clb=-14.6m/s t=-56.1C h=-1.0% p=-1.0hPa 403.211 MHz Type=DFM17 ser=22035324 Radiosonde
K7MTDD220353242022-12-06 13:20:3546.8357-116.0611189814304Clb=-14.6m/s t=-55.8C h=-1.0% p=-1.0hPa 403.211 MHz Type=DFM17 ser=22035324 Radiosonde
KA7FVVD220353242022-12-06 13:20:0346.8379-116.0661169114587Clb=-15.0m/s t=-57.1C h=-1.0% p=-1.0hPa 403.211 MHz Type=DFM17 ser=22035324 Radiosonde
K7MTDD220353242022-12-06 13:19:4646.8388-116.071079414766Clb=-15.1m/s t=-57.1C h=-1.0% p=-1.0hPa 403.211 MHz Type=DFM17 ser=22035324 Radiosonde
KA7FVVD220353242022-12-06 13:19:2146.8407-116.0761199615057Clb=-15.5m/s t=-56.7C h=-1.0% p=-1.0hPa 403.211 MHz Type=DFM17 ser=22035324 Radiosonde
K7MTDD220353242022-12-06 13:19:0446.8424-116.081289315260Clb=-15.7m/s t=-56.7C h=-1.0% p=-1.0hPa 403.211 MHz Type=DFM17 ser=22035324 Radiosonde
KA7FVVD220353242022-12-06 13:18:4246.8451-116.0841348115549Clb=-16.1m/s t=-55.4C h=-1.0% p=-1.0hPa 403.211 MHz Type=DFM17 ser=22035324 Radiosonde
K7MTDD220353242022-12-06 13:18:2646.8464-116.0871187415749Clb=-16.7m/s t=-55.3C h=-1.0% p=-1.0hPa 403.211 MHz Type=DFM17 ser=22035324 Radiosonde
KA7FVVD220353242022-12-06 13:18:0146.8481-116.0911077616076Clb=-17.1m/s t=-56.3C h=-1.0% p=-1.0hPa 403.211 MHz Type=DFM17 ser=22035324 Radiosonde
K7MTDD220353242022-12-06 13:17:4346.8487-116.0951048016291Clb=-17.9m/s t=-56.9C h=-1.0% p=-1.0hPa 403.211 MHz Type=DFM17 ser=22035324 Radiosonde
KA7FVVD220353242022-12-06 13:17:1646.8497-116.11048116635Clb=-18.2m/s t=-58.4C h=-1.0% p=-1.0hPa 403.211 MHz Type=DFM17 ser=22035324 Radiosonde
K7MTDD220353242022-12-06 13:16:5746.8505-116.1041119116857Clb=-18.6m/s t=-58.3C h=-1.0% p=-1.0hPa 403.211 MHz Type=DFM17 ser=22035324 Radiosonde
KA7FVVD220353242022-12-06 13:16:3446.8528-116.111159817281Clb=-19.9m/s t=-58.4C h=-1.0% p=-1.0hPa 403.211 MHz Type=DFM17 ser=22035324 Radiosonde
K7MTDD220353242022-12-06 13:16:1946.8537-116.1131178117462Clb=-19.7m/s t=-58.1C h=-1.0% p=-1.0hPa 403.211 MHz Type=DFM17 ser=22035324 Radiosonde
KA7FVVD220353242022-12-06 13:15:5646.8555-116.1181168017860Clb=-20.2m/s t=-58.0C h=-1.0% p=-1.0hPa 403.211 MHz Type=DFM17 ser=22035324 Radiosonde
K7MTDD220353242022-12-06 13:15:4046.8568-116.1211218718105Clb=-20.9m/s t=-59.0C h=-1.0% p=-1.0hPa 403.211 MHz Type=DFM17 ser=22035324 Radiosonde
KA7FVVD220353242022-12-06 13:15:1246.8588-116.1261207018482Clb=-21.5m/s t=-59.0C h=-1.0% p=-1.0hPa 403.211 MHz Type=DFM17 ser=22035324 Radiosonde
K7MTDD220353242022-12-06 13:14:5646.8601-116.1291228318742Clb=-22.0m/s t=-58.9C h=-1.0% p=-1.0hPa 403.211 MHz Type=DFM17 ser=22035324 Radiosonde
KA7FVVD220353242022-12-06 13:14:3046.8624-116.1341258919163Clb=-22.6m/s t=-58.5C h=-1.0% p=-1.0hPa 403.211 MHz Type=DFM17 ser=22035324 Radiosonde
K7MTDD220353242022-12-06 13:14:1446.8641-116.1371308319433Clb=-22.8m/s t=-58.3C h=-1.0% p=-1.0hPa 403.211 MHz Type=DFM17 ser=22035324 Radiosonde
KA7FVVD220353242022-12-06 13:13:4946.8664-116.1411197419871Clb=-23.1m/s t=-57.9C h=-1.0% p=-1.0hPa 403.211 MHz Type=DFM17 ser=22035324 Radiosonde
K7MTDD220353242022-12-06 13:13:4246.8672-116.1441088020156Clb=-24.0m/s t=-56.7C h=-1.0% p=-1.0hPa 403.211 MHz Type=DFM17 ser=22035324 Radiosonde
KA7FVVD220353242022-12-06 13:13:0346.8688-116.15111311120646Clb=-24.9m/s t=-55.5C h=-1.0% p=-1.0hPa 403.211 MHz Type=DFM17 ser=22035324 Radiosonde
K7MTDD220353242022-12-06 13:12:4546.8703-116.1551279620922Clb=-25.4m/s t=-55.2C h=-1.0% p=-1.0hPa 403.211 MHz Type=DFM17 ser=22035324 Radiosonde
KA7FVVD220353242022-12-06 13:12:1846.8733-116.1591418521412Clb=-27.3m/s t=-55.0C h=-1.0% p=-1.0hPa 403.211 MHz Type=DFM17 ser=22035324 Radiosonde
K7MTDD220353242022-12-06 13:12:0446.875-116.1611485421777Clb=-28.3m/s t=-54.5C h=-1.0% p=-1.0hPa 403.211 MHz Type=DFM17 ser=22035324 Radiosonde
KA7FVVD220353242022-12-06 13:12:0046.8771-116.1621534822310Clb=-29.2m/s t=-57.9C h=-1.0% p=-1.0hPa 403.211 MHz Type=DFM17 ser=22035324 Radiosonde
K7MTDD220353242022-12-06 13:11:5746.8782-116.1641324422593Clb=-25.3m/s t=-58.8C h=-1.0% p=-1.0hPa 403.211 MHz Type=DFM17 ser=22035324 Radiosonde
KA7FVVD220353242022-12-06 13:11:5346.8801-116.1671347623091Clb=-29.3m/s t=-58.0C h=-1.0% p=-1.0hPa 403.211 MHz Type=DFM17 ser=22035324 Radiosonde
K7MTDD220353242022-12-06 13:11:5046.8821-116.1691388123513Clb=-24.6m/s t=-55.9C h=-1.0% p=-1.0hPa 403.211 MHz Type=DFM17 ser=22035324 Radiosonde
WB7NNFD220353242022-12-06 13:11:4846.8843-116.1721467823855Clb=-27.6m/s t=-53.7C h=-1.0% p=-1.0hPa 403.207 MHz Type=DFM17 ser=22035324 Radiosonde
KA7FVVD220353242022-12-06 13:11:4646.8853-116.1731557824017Clb=-28.2m/s t=-52.9C h=-1.0% p=-1.0hPa 403.211 MHz Type=DFM17 ser=22035324 Radiosonde
K7MTDD220353242022-12-06 13:11:4346.887-116.1741547224258Clb=-22.9m/s t=-53.8C h=-1.0% p=-1.0hPa 403.211 MHz Type=DFM17 ser=22035324 Radiosonde
KA7FVVD220353242022-12-06 13:11:3946.8894-116.1761454424713Clb=-18.9m/s t=-56.9C h=-1.0% p=-1.0hPa 403.211 MHz Type=DFM17 ser=22035324 Radiosonde
K7MTDD220353242022-12-06 13:11:3846.8904-116.1781275224989Clb=-23.6m/s t=-58.7C h=-1.0% p=-1.0hPa 403.211 MHz Type=DFM17 ser=22035324 Radiosonde
KA7FVVD220353242022-12-06 13:11:3746.8922-116.1811296325603Clb=-30.4m/s t=-59.0C h=-1.0% p=-1.0hPa 403.211 MHz Type=DFM17 ser=22035324 Radiosonde
K7MTDD220353242022-12-06 13:11:3646.8935-116.1831407825891Clb=-25.9m/s t=-59.9C h=-1.0% p=-1.0hPa 403.211 MHz Type=DFM17 ser=22035324 Radiosonde
K7MTDD220353242022-12-06 13:11:1846.899-116.1914410026771Clb=-32.9m/s t=-62.2C h=-1.0% p=-1.0hPa 403.211 MHz Type=DFM17 ser=22035324 Radiosonde
K7MTDD220353242022-12-06 13:10:3746.9038-116.1971198727776Clb=-35.0m/s t=-61.3C h=-1.0% p=-1.0hPa 403.211 MHz Type=DFM17 ser=22035324 Radiosonde
K7MTDD220353242022-12-06 13:09:4446.9068-116.2061168928802Clb=-33.5m/s t=-58.1C h=-1.0% p=-1.0hPa 403.211 MHz Type=DFM17 ser=22035324 Radiosonde
KA7FVVD220353242022-12-06 13:09:1046.909-116.21312010729399Clb=-26.9m/s t=-59.1C h=-1.0% p=-1.0hPa 403.211 MHz Type=DFM17 ser=22035324 Radiosonde
K7MTDD220353242022-12-06 13:08:4946.9104-116.2161269629707Clb=-27.2m/s t=-59.9C h=-1.0% p=-1.0hPa 403.211 MHz Type=DFM17 ser=22035324 Radiosonde
KA7FVVD220353242022-12-06 13:08:1646.913-116.221457230201Clb=-26.4m/s t=-61.3C h=-1.0% p=-1.0hPa 403.211 MHz Type=DFM17 ser=22035324 Radiosonde
K7MTDD220353242022-12-06 13:07:5446.9144-116.2221355630488Clb=-28.3m/s t=-62.2C h=-1.0% p=-1.0hPa 403.211 MHz Type=DFM17 ser=22035324 Radiosonde
KA7FVVD220353242022-12-06 13:07:1646.9162-116.22612210031111Clb=-33.0m/s t=-62.5C h=-1.0% p=-1.0hPa 403.211 MHz Type=DFM17 ser=22035324 Radiosonde
K7MTDD220353242022-12-06 13:06:5746.9178-116.2310910731515Clb=-30.4m/s t=-61.6C h=-1.0% p=-1.0hPa 403.211 MHz Type=DFM17 ser=22035324 Radiosonde
KA7FVVD220353242022-12-06 13:06:2846.9202-116.23712212632089Clb=-35.2m/s t=-63.5C h=-1.0% p=-1.0hPa 403.211 MHz Type=DFM17 ser=22035324 Radiosonde
K7MTDD220353242022-12-06 13:06:1046.9219-116.24111910732467Clb=-24.0m/s t=-63.9C h=-1.0% p=-1.0hPa 403.211 MHz Type=DFM17 ser=22035324 Radiosonde
KA7FVVD220353242022-12-06 13:05:4046.9254-116.2511912033236Clb=-24.5m/s t=-59.3C h=-1.0% p=-1.0hPa 403.211 MHz Type=DFM17 ser=22035324 Radiosonde
K7MTDD220353242022-12-06 13:05:2446.9261-116.25212013333341Clb=-23.6m/s t=-58.7C h=-1.0% p=-1.0hPa 403.211 MHz Type=DFM17 ser=22035324 Radiosonde
KA7FVVD220353242022-12-06 13:04:5346.9294-116.26112413933449Clb=4.9m/s t=-58.6C h=-1.0% p=-1.0hPa 403.211 MHz Type=DFM17 ser=22035324 Radiosonde
K7MTDD220353242022-12-06 13:04:3546.9316-116.26612113133384Clb=5.0m/s t=-59.5C h=-1.0% p=-1.0hPa 403.211 MHz Type=DFM17 ser=22035324 Radiosonde
KA7FVVD220353242022-12-06 13:03:5746.9343-116.27411813033300Clb=4.6m/s t=-60.1C h=-1.0% p=-1.0hPa 403.211 MHz Type=DFM17 ser=22035324 Radiosonde
K7MTDD220353242022-12-06 13:03:3846.9362-116.27812213033249Clb=3.6m/s t=-60.8C h=-1.0% p=-1.0hPa 403.211 MHz Type=DFM17 ser=22035324 Radiosonde
KA7FVVD220353242022-12-06 13:03:0846.9393-116.28512810433174Clb=4.4m/s t=-61.8C h=-1.0% p=-1.0hPa 403.211 MHz Type=DFM17 ser=22035324 Radiosonde
K7MTDD220353242022-12-06 13:02:5146.9412-116.2881279133125Clb=4.8m/s t=-62.8C h=-1.0% p=-1.0hPa 403.211 MHz Type=DFM17 ser=22035324 Radiosonde
KA7FVVD220353242022-12-06 13:02:2146.9442-116.2931458333038Clb=4.6m/s t=-63.3C h=-1.0% p=-1.0hPa 403.211 MHz Type=DFM17 ser=22035324 Radiosonde
K7MTDD220353242022-12-06 13:02:0146.946-116.2961447632981Clb=5.1m/s t=-63.6C h=-1.0% p=-1.0hPa 403.211 MHz Type=DFM17 ser=22035324 Radiosonde
KA7FVVD220353242022-12-06 13:01:3546.9488-116.31369432876Clb=5.3m/s t=-63.8C h=-1.0% p=-1.0hPa 403.211 MHz Type=DFM17 ser=22035324 Radiosonde
K7MTDD220353242022-12-06 13:01:1546.9502-116.3021239832815Clb=5.1m/s t=-63.4C h=-1.0% p=-1.0hPa 403.211 MHz Type=DFM17 ser=22035324 Radiosonde
KA7FVVD220353242022-12-06 13:00:3746.9524-116.3071048332692Clb=5.1m/s t=-62.7C h=-1.0% p=-1.0hPa 403.211 MHz Type=DFM17 ser=22035324 Radiosonde
K7MTDD220353242022-12-06 13:00:1746.9533-116.311127232616Clb=6.8m/s t=-63.0C h=-1.0% p=-1.0hPa 403.211 MHz Type=DFM17 ser=22035324 Radiosonde
KA7FVVD220353242022-12-06 12:59:3346.9549-116.3161288732474Clb=4.8m/s t=-63.1C h=-1.0% p=-1.0hPa 403.211 MHz Type=DFM17 ser=22035324 Radiosonde
K7MTDD220353242022-12-06 12:59:0746.9558-116.321108932389Clb=8.5m/s t=-62.7C h=-1.0% p=-1.0hPa 403.211 MHz Type=DFM17 ser=22035324 Radiosonde
KA7FVVD220353242022-12-06 12:58:2946.9579-116.3261248732209Clb=9.9m/s t=-62.1C h=-1.0% p=-1.0hPa 403.211 MHz Type=DFM17 ser=22035324 Radiosonde
K7MTDD220353242022-12-06 12:58:0446.9591-116.32812010632127Clb=8.6m/s t=-61.7C h=-1.0% p=-1.0hPa 403.211 MHz Type=DFM17 ser=22035324 Radiosonde
KA7FVVD220353242022-12-06 12:57:2246.9622-116.33513913131950Clb=13.4m/s t=-60.6C h=-1.0% p=-1.0hPa 403.211 MHz Type=DFM17 ser=22035324 Radiosonde
K7MTDD220353242022-12-06 12:57:0146.964-116.33813812031867Clb=5.7m/s t=-60.2C h=-1.0% p=-1.0hPa 403.211 MHz Type=DFM17 ser=22035324 Radiosonde
KA7FVVD220353242022-12-06 12:56:2946.9678-116.34511410431704Clb=3.9m/s t=-60.1C h=-1.0% p=-1.0hPa 403.211 MHz Type=DFM17 ser=22035324 Radiosonde
K7MTDD220353242022-12-06 12:56:1446.9689-116.3471189431667Clb=5.8m/s t=-60.1C h=-1.0% p=-1.0hPa 403.211 MHz Type=DFM17 ser=22035324 Radiosonde
KA7FVVD220353242022-12-06 12:55:3446.9718-116.35411510431584Clb=-1.1m/s t=-59.8C h=-1.0% p=-1.0hPa 403.211 MHz Type=DFM17 ser=22035324 Radiosonde
K7MTDD220353242022-12-06 12:55:1046.9732-116.35713411331545Clb=8.7m/s t=-59.7C h=-1.0% p=-1.0hPa 403.211 MHz Type=DFM17 ser=22035324 Radiosonde
KA7FVVD220353242022-12-06 12:54:3546.9759-116.36410510431491Clb=4.5m/s t=-60.1C h=-1.0% p=-1.0hPa 403.211 MHz Type=DFM17 ser=22035324 Radiosonde
K7MTDD220353242022-12-06 12:54:1846.9769-116.3689613031470Clb=1.1m/s t=-61.4C h=-1.0% p=-1.0hPa 403.211 MHz Type=DFM17 ser=22035324 Radiosonde
KA7FVVD220353242022-12-06 12:53:4146.9789-116.3741128731426Clb=3.6m/s t=-62.6C h=-1.0% p=-1.0hPa 403.211 MHz Type=DFM17 ser=22035324 Radiosonde
K7MTDD220353242022-12-06 12:53:2246.9803-116.37814110031397Clb=1.2m/s t=-63.2C h=-1.0% p=-1.0hPa 403.211 MHz Type=DFM17 ser=22035324 Radiosonde
KA7FVVD220353242022-12-06 12:52:4546.9829-116.3831158931343Clb=5.2m/s t=-63.3C h=-1.0% p=-1.0hPa 403.211 MHz Type=DFM17 ser=22035324 Radiosonde
K7MTDD220353242022-12-06 12:52:2246.9842-116.38711211331302Clb=3.6m/s t=-63.3C h=-1.0% p=-1.0hPa 403.211 MHz Type=DFM17 ser=22035324 Radiosonde
WB7NNFD220353242022-12-06 12:51:5246.9862-116.39212312431229Clb=5.3m/s t=-63.0C h=-1.0% p=-1.0hPa 403.207 MHz Type=DFM17 ser=22035324 Radiosonde
KA7FVVD220353242022-12-06 12:51:4046.9865-116.39211010931220Clb=4.8m/s t=-63.0C h=-1.0% p=-1.0hPa 403.211 MHz Type=DFM17 ser=22035324 Radiosonde
K7MTDD220353242022-12-06 12:51:1946.9878-116.3961197031148Clb=4.0m/s t=-62.9C h=-1.0% p=-1.0hPa 403.211 MHz Type=DFM17 ser=22035324 Radiosonde
WB7NNFD220353242022-12-06 12:50:5546.9893-116.41279831067Clb=6.0m/s t=-62.6C h=-1.0% p=-1.0hPa 403.207 MHz Type=DFM17 ser=22035324 Radiosonde
KA7FVVD220353242022-12-06 12:50:4346.9898-116.4021068131034Clb=6.2m/s t=-62.5C h=-1.0% p=-1.0hPa 403.211 MHz Type=DFM17 ser=22035324 Radiosonde
K7MTDD220353242022-12-06 12:50:2146.9907-116.4051286930951Clb=8.3m/s t=-62.1C h=-1.0% p=-1.0hPa 403.211 MHz Type=DFM17 ser=22035324 Radiosonde
KA7FVVD220353242022-12-06 12:49:3846.9924-116.411776930785Clb=4.0m/s t=-61.2C h=-1.0% p=-1.0hPa 403.211 MHz Type=DFM17 ser=22035324 Radiosonde
WB7NNFD220353242022-12-06 12:48:4746.9936-116.4171135930603Clb=3.9m/s t=-60.6C h=-1.0% p=-1.0hPa 403.207 MHz Type=DFM17 ser=22035324 Radiosonde
KA7FVVD220353242022-12-06 12:48:3246.9937-116.418887830577Clb=1.9m/s t=-60.6C h=-1.0% p=-1.0hPa 403.211 MHz Type=DFM17 ser=22035324 Radiosonde
WB7NNFD220353242022-12-06 12:47:3946.9949-116.425956530359Clb=-2.9m/s t=-59.7C h=-1.0% p=-1.0hPa 403.207 MHz Type=DFM17 ser=22035324 Radiosonde
KA7FVVD220353242022-12-06 12:47:2646.9954-116.4261007630301Clb=1.4m/s t=-59.6C h=-1.0% p=-1.0hPa 403.211 MHz Type=DFM17 ser=22035324 Radiosonde
WB7NNFD220353242022-12-06 12:46:4146.9973-116.431449430157Clb=4.2m/s t=-59.4C h=-1.0% p=-1.0hPa 403.207 MHz Type=DFM17 ser=22035324 Radiosonde
KA7FVVD220353242022-12-06 12:46:2946.9977-116.4311225730128Clb=2.4m/s t=-59.3C h=-1.0% p=-1.0hPa 403.211 MHz Type=DFM17 ser=22035324 Radiosonde
WB7NNFD220353242022-12-06 12:45:4347.0012-116.4361218729980Clb=6.4m/s t=-59.4C h=-1.0% p=-1.0hPa 403.207 MHz Type=DFM17 ser=22035324 Radiosonde
KA7FVVD220353242022-12-06 12:45:3047.0022-116.43714211729946Clb=4.2m/s t=-59.5C h=-1.0% p=-1.0hPa 403.211 MHz Type=DFM17 ser=22035324 Radiosonde
WB7NNFD220353242022-12-06 12:44:3747.0077-116.4471167429775Clb=-2.0m/s t=-59.9C h=-1.0% p=-1.0hPa 403.207 MHz Type=DFM17 ser=22035324 Radiosonde
KA7FVVD220353242022-12-06 12:44:2447.0066-116.44513112229799Clb=9.9m/s t=-59.8C h=-1.0% p=-1.0hPa 403.211 MHz Type=DFM17 ser=22035324 Radiosonde
WB7NNFD220353242022-12-06 12:43:5947.0108-116.45412714429704Clb=7.5m/s t=-60.3C h=-1.0% p=-1.0hPa 403.207 MHz Type=DFM17 ser=22035324 Radiosonde
KA7FVVD220353242022-12-06 12:43:5847.0117-116.45612510029687Clb=0.3m/s t=-60.7C h=-1.0% p=-1.0hPa 403.211 MHz Type=DFM17 ser=22035324 Radiosonde
WB7NNFD220353242022-12-06 12:43:5047.0154-116.4651049629592Clb=1.2m/s t=-60.8C h=-1.0% p=-1.0hPa 403.207 MHz Type=DFM17 ser=22035324 Radiosonde
WB7NNFD220353242022-12-06 12:43:4847.0192-116.47411812229475Clb=9.3m/s t=-62.5C h=-1.0% p=-1.0hPa 403.207 MHz Type=DFM17 ser=22035324 Radiosonde
KA7FVVD220353242022-12-06 12:43:4647.02-116.47612910429448Clb=2.1m/s t=-62.4C h=-1.0% p=-1.0hPa 403.211 MHz Type=DFM17 ser=22035324 Radiosonde
WB7NNFD220353242022-12-06 12:43:3547.023-116.48413411929312Clb=7.7m/s t=-62.1C h=-1.0% p=-1.0hPa 403.207 MHz Type=DFM17 ser=22035324 Radiosonde
KA7FVVD220353242022-12-06 12:43:3347.0236-116.4851358529280Clb=8.0m/s t=-61.9C h=-1.0% p=-1.0hPa 403.211 MHz Type=DFM17 ser=22035324 Radiosonde
WB7NNFD220353242022-12-06 12:43:2047.0266-116.49312010229121Clb=0.7m/s t=-61.8C h=-1.0% p=-1.0hPa 403.207 MHz Type=DFM17 ser=22035324 Radiosonde
KA7FVVD220353242022-12-06 12:43:1347.0271-116.49513810729065Clb=0.2m/s t=-61.6C h=-1.0% p=-1.0hPa 403.211 MHz Type=DFM17 ser=22035324 Radiosonde
WB7NNFD220353242022-12-06 12:42:4247.0296-116.50212012028884Clb=10.5m/s t=-61.2C h=-1.0% p=-1.0hPa 403.207 MHz Type=DFM17 ser=22035324 Radiosonde
KA7FVVD220353242022-12-06 12:42:3147.0302-116.5031369128840Clb=10.4m/s t=-61.1C h=-1.0% p=-1.0hPa 403.211 MHz Type=DFM17 ser=22035324 Radiosonde
WB7NNFD220353242022-12-06 12:42:0047.0335-116.511388128638Clb=8.9m/s t=-61.3C h=-1.0% p=-1.0hPa 403.207 MHz Type=DFM17 ser=22035324 Radiosonde
KA7FVVD220353242022-12-06 12:41:5947.034-116.5111127228606Clb=11.6m/s t=-61.3C h=-1.0% p=-1.0hPa 403.211 MHz Type=DFM17 ser=22035324 Radiosonde
WB7NNFD220353242022-12-06 12:41:5647.0369-116.5181188528408Clb=0.8m/s t=-60.9C h=-1.0% p=-1.0hPa 403.207 MHz Type=DFM17 ser=22035324 Radiosonde
KA7FVVD220353242022-12-06 12:41:5547.0369-116.519775428386Clb=0.5m/s t=-60.9C h=-1.0% p=-1.0hPa 403.211 MHz Type=DFM17 ser=22035324 Radiosonde
K7MTDD220353242022-12-06 12:41:5447.039-116.5251228128227Clb=-1.1m/s t=-61.9C h=-1.0% p=-1.0hPa 403.211 MHz Type=DFM17 ser=22035324 Radiosonde
WB7NNFD220353242022-12-06 12:41:5247.039-116.5251228128227Clb=-1.1m/s t=-61.9C h=-1.0% p=-1.0hPa 403.207 MHz Type=DFM17 ser=22035324 Radiosonde
K7MTDD220353242022-12-06 12:41:5147.0406-116.5281286928120Clb=6.4m/s t=-61.9C h=-1.0% p=-1.0hPa 403.211 MHz Type=DFM17 ser=22035324 Radiosonde
WB7NNFD220353242022-12-06 12:41:5047.0418-116.531227428049Clb=9.7m/s t=-61.4C h=-1.0% p=-1.0hPa 403.207 MHz Type=DFM17 ser=22035324 Radiosonde
KA7FVVD220353242022-12-06 12:41:4947.0425-116.5311322428012Clb=1.1m/s t=-61.2C h=-1.0% p=-1.0hPa 403.211 MHz Type=DFM17 ser=22035324 Radiosonde
WB7NNFD220353242022-12-06 12:41:4847.046-116.5381229827856Clb=10.5m/s t=-61.8C h=-1.0% p=-1.0hPa 403.207 MHz Type=DFM17 ser=22035324 Radiosonde
KA7FVVD220353242022-12-06 12:41:4747.0464-116.53914110427843Clb=-1.4m/s t=-61.8C h=-1.0% p=-1.0hPa 403.211 MHz Type=DFM17 ser=22035324 Radiosonde
K7MTDD220353242022-12-06 12:41:4647.0477-116.5411157227786Clb=1.6m/s t=-61.6C h=-1.0% p=-1.0hPa 403.211 MHz Type=DFM17 ser=22035324 Radiosonde
WB7NNFD220353242022-12-06 12:41:4547.0497-116.5441168527697Clb=8.8m/s t=-61.4C h=-1.0% p=-1.0hPa 403.207 MHz Type=DFM17 ser=22035324 Radiosonde
KA7FVVD220353242022-12-06 12:41:4347.0504-116.5451656927675Clb=6.2m/s t=-61.7C h=-1.0% p=-1.0hPa 403.211 MHz Type=DFM17 ser=22035324 Radiosonde
K7MTDD220353242022-12-06 12:41:3447.0538-116.54914611727535Clb=3.6m/s t=-62.3C h=-1.0% p=-1.0hPa 403.211 MHz Type=DFM17 ser=22035324 Radiosonde
WB7NNFD220353242022-12-06 12:41:1847.0543-116.551196927512Clb=4.7m/s t=-62.2C h=-1.0% p=-1.0hPa 403.207 MHz Type=DFM17 ser=22035324 Radiosonde
KA7FVVD220353242022-12-06 12:41:1247.055-116.551547027491Clb=10.3m/s t=-62.1C h=-1.0% p=-1.0hPa 403.211 MHz Type=DFM17 ser=22035324 Radiosonde
K7MTDD220353242022-12-06 12:40:5947.0572-116.5531164427395Clb=11.9m/s t=-61.9C h=-1.0% p=-1.0hPa 403.211 MHz Type=DFM17 ser=22035324 Radiosonde
WB7NNFD220353242022-12-06 12:40:3547.0583-116.5551256327342Clb=2.4m/s t=-61.7C h=-1.0% p=-1.0hPa 403.207 MHz Type=DFM17 ser=22035324 Radiosonde
KA7FVVD220353242022-12-06 12:40:2347.0594-116.5561315927299Clb=3.3m/s t=-61.6C h=-1.0% p=-1.0hPa 403.211 MHz Type=DFM17 ser=22035324 Radiosonde
K7MTDD220353242022-12-06 12:39:5947.061-116.55915010427235Clb=8.2m/s t=-61.4C h=-1.0% p=-1.0hPa 403.211 MHz Type=DFM17 ser=22035324 Radiosonde
WB7NNFD220353242022-12-06 12:39:3347.0639-116.5611228127128Clb=8.6m/s t=-61.1C h=-1.0% p=-1.0hPa 403.207 MHz Type=DFM17 ser=22035324 Radiosonde
KA7FVVD220353242022-12-06 12:39:1847.0655-116.56315011127070Clb=5.3m/s t=-61.1C h=-1.0% p=-1.0hPa 403.211 MHz Type=DFM17 ser=22035324 Radiosonde
K7MTDD220353242022-12-06 12:38:5147.0665-116.56514413027030Clb=1.8m/s t=-61.3C h=-1.0% p=-1.0hPa 403.211 MHz Type=DFM17 ser=22035324 Radiosonde
WB7NNFD220353242022-12-06 12:38:2247.0693-116.5681198726922Clb=2.4m/s t=-61.6C h=-1.0% p=-1.0hPa 403.207 MHz Type=DFM17 ser=22035324 Radiosonde
KA7FVVD220353242022-12-06 12:38:0847.0697-116.56815511726907Clb=9.8m/s t=-61.6C h=-1.0% p=-1.0hPa 403.211 MHz Type=DFM17 ser=22035324 Radiosonde
K7MTDD220353242022-12-06 12:37:4247.0714-116.5712311326840Clb=0.0m/s t=-273.0C h=-1.0% p=-1.0hPa 403.211 MHz Type=DFM17 ser=22035324 Radiosonde
KA7FVVD220353242022-12-06 12:36:5647.075-116.57414713026714Clb=4.3m/s t=-60.7C h=-1.0% p=-1.0hPa 403.211 MHz Type=DFM17 ser=22035324 Radiosonde
K7MTDD220353242022-12-06 12:36:3147.077-116.5751339326646Clb=3.2m/s t=-60.6C h=-1.0% p=-1.0hPa 403.211 MHz Type=DFM17 ser=22035324 Radiosonde
WB7NNFD220353242022-12-06 12:36:0047.0795-116.57813111726563Clb=0.6m/s t=-60.4C h=-1.0% p=-1.0hPa 403.207 MHz Type=DFM17 ser=22035324 Radiosonde
KA7FVVD220353242022-12-06 12:35:4747.0812-116.5815111726519Clb=7.4m/s t=-60.2C h=-1.0% p=-1.0hPa 403.211 MHz Type=DFM17 ser=22035324 Radiosonde
K7MTDD220353242022-12-06 12:35:2147.0832-116.5811318126460Clb=6.8m/s t=-273.0C h=-1.0% p=-1.0hPa 403.211 MHz Type=DFM17 ser=22035324 Radiosonde
WB7NNFD220353242022-12-06 12:34:4047.0859-116.5841416926388Clb=-2.5m/s t=-59.7C h=-1.0% p=-1.0hPa 403.207 MHz Type=DFM17 ser=22035324 Radiosonde
KA7FVVD220353242022-12-06 12:34:2147.0877-116.58613713026339Clb=10.2m/s t=-59.4C h=-1.0% p=-1.0hPa 403.211 MHz Type=DFM17 ser=22035324 Radiosonde
K7MTDD220353242022-12-06 12:33:5447.0896-116.58814910626289Clb=2.0m/s t=-59.1C h=-1.0% p=-1.0hPa 403.211 MHz Type=DFM17 ser=22035324 Radiosonde
WB7NNFD220353242022-12-06 12:33:2247.0937-116.59412010226165Clb=-2.9m/s t=-58.3C h=-1.0% p=-1.0hPa 403.207 MHz Type=DFM17 ser=22035324 Radiosonde
KA7FVVD220353242022-12-06 12:33:0447.0933-116.5931579826177Clb=-1.1m/s t=-58.4C h=-1.0% p=-1.0hPa 403.211 MHz Type=DFM17 ser=22035324 Radiosonde
KA7FVVD220353242022-12-06 12:32:1747.1781-116.715110922595Clb=5.1m/s t=-58.8C h=-1.0% p=-1.0hPa 403.211 MHz Type=DFM17 ser=22035324 Radiosonde
K7MTDD220353242022-12-06 12:31:4947.1797-116.7011337822537Clb=6.1m/s t=-58.8C h=-1.0% p=-1.0hPa 403.211 MHz Type=DFM17 ser=22035324 Radiosonde
WB7NNFD220353242022-12-06 12:31:1947.1819-116.7031669322466Clb=-1.7m/s t=-58.8C h=-1.0% p=-1.0hPa 403.207 MHz Type=DFM17 ser=22035324 Radiosonde
KA7FVVD220353242022-12-06 12:31:0347.1827-116.70416410422439Clb=4.2m/s t=-58.9C h=-1.0% p=-1.0hPa 403.211 MHz Type=DFM17 ser=22035324 Radiosonde
K7MTDD220353242022-12-06 12:30:3547.1843-116.7061509622376Clb=8.9m/s t=-58.5C h=-1.0% p=-1.0hPa 403.211 MHz Type=DFM17 ser=22035324 Radiosonde
WB7NNFD220353242022-12-06 12:30:0647.1866-116.7081175222298Clb=8.5m/s t=-58.0C h=-1.0% p=-1.0hPa 403.207 MHz Type=DFM17 ser=22035324 Radiosonde
KA7FVVD220353242022-12-06 12:29:4847.1872-116.7081627022274Clb=2.7m/s t=-57.8C h=-1.0% p=-1.0hPa 403.211 MHz Type=DFM17 ser=22035324 Radiosonde
K7MTDD220353242022-12-06 12:29:2347.1891-116.711647222209Clb=1.3m/s t=-57.9C h=-1.0% p=-1.0hPa 403.211 MHz Type=DFM17 ser=22035324 Radiosonde
WB7NNFD220353242022-12-06 12:28:5347.1904-116.7121518722149Clb=9.1m/s t=-57.5C h=-1.0% p=-1.0hPa 403.207 MHz Type=DFM17 ser=22035324 Radiosonde
KA7FVVD220353242022-12-06 12:28:3747.1912-116.7131428322116Clb=10.4m/s t=-57.3C h=-1.0% p=-1.0hPa 403.211 MHz Type=DFM17 ser=22035324 Radiosonde
K7MTDD220353242022-12-06 12:28:1247.1926-116.7151138722050Clb=6.1m/s t=-56.9C h=-1.0% p=-1.0hPa 403.211 MHz Type=DFM17 ser=22035324 Radiosonde
WB7NNFD220353242022-12-06 12:27:4347.1947-116.7171405621956Clb=3.3m/s t=-56.8C h=-1.0% p=-1.0hPa 403.207 MHz Type=DFM17 ser=22035324 Radiosonde
KA7FVVD220353242022-12-06 12:27:2947.1952-116.7181538521933Clb=8.1m/s t=-56.8C h=-1.0% p=-1.0hPa 403.211 MHz Type=DFM17 ser=22035324 Radiosonde
K7MTDD220353242022-12-06 12:27:0547.1968-116.7212910721872Clb=0.6m/s t=-57.4C h=-1.0% p=-1.0hPa 403.211 MHz Type=DFM17 ser=22035324 Radiosonde
WB7NNFD220353242022-12-06 12:26:3947.1991-116.7231429121799Clb=6.1m/s t=-57.6C h=-1.0% p=-1.0hPa 403.207 MHz Type=DFM17 ser=22035324 Radiosonde
KA7FVVD220353242022-12-06 12:26:2447.2001-116.7241518721755Clb=8.7m/s t=-57.6C h=-1.0% p=-1.0hPa 403.211 MHz Type=DFM17 ser=22035324 Radiosonde
K7MTDD220353242022-12-06 12:25:5947.2018-116.72613612621698Clb=6.8m/s t=-58.2C h=-1.0% p=-1.0hPa 403.211 MHz Type=DFM17 ser=22035324 Radiosonde
WB7NNFD220353242022-12-06 12:25:3147.2046-116.731346921618Clb=-1.2m/s t=-58.5C h=-1.0% p=-1.0hPa 403.207 MHz Type=DFM17 ser=22035324 Radiosonde
KA7FVVD220353242022-12-06 12:25:1547.2057-116.7311416321588Clb=0.2m/s t=-58.3C h=-1.0% p=-1.0hPa 403.211 MHz Type=DFM17 ser=22035324 Radiosonde
K7MTDD220353242022-12-06 12:24:4447.2074-116.73214813021551Clb=1.0m/s t=-58.1C h=-1.0% p=-1.0hPa 403.211 MHz Type=DFM17 ser=22035324 Radiosonde
WB7NNFD220353242022-12-06 12:24:1447.2102-116.7351606121476Clb=3.4m/s t=-58.2C h=-1.0% p=-1.0hPa 403.207 MHz Type=DFM17 ser=22035324 Radiosonde
KA7FVVD220353242022-12-06 12:23:5647.2111-116.7361434821446Clb=0.3m/s t=-58.2C h=-1.0% p=-1.0hPa 403.211 MHz Type=DFM17 ser=22035324 Radiosonde
K7MTDD220353242022-12-06 12:23:3247.2125-116.73813111521405Clb=2.4m/s t=-58.1C h=-1.0% p=-1.0hPa 403.211 MHz Type=DFM17 ser=22035324 Radiosonde
WB7NNFD220353242022-12-06 12:23:0247.2146-116.7411365721337Clb=1.0m/s t=-58.1C h=-1.0% p=-1.0hPa 403.207 MHz Type=DFM17 ser=22035324 Radiosonde
KA7FVVD220353242022-12-06 12:22:4447.2155-116.7421155221309Clb=-0.0m/s t=-58.0C h=-1.0% p=-1.0hPa 403.211 MHz Type=DFM17 ser=22035324 Radiosonde
K7MTDD220353242022-12-06 12:22:1647.2169-116.74512610621270Clb=2.4m/s t=-57.8C h=-1.0% p=-1.0hPa 403.211 MHz Type=DFM17 ser=22035324 Radiosonde
WB7NNFD220353242022-12-06 12:21:4547.2185-116.748995621206Clb=4.8m/s t=-57.6C h=-1.0% p=-1.0hPa 403.207 MHz Type=DFM17 ser=22035324 Radiosonde
KA7FVVD220353242022-12-06 12:21:2947.2192-116.751045221179Clb=3.4m/s t=-57.4C h=-1.0% p=-1.0hPa 403.211 MHz Type=DFM17 ser=22035324 Radiosonde
K7MTDD220353242022-12-06 12:20:5947.2206-116.7521108721134Clb=8.0m/s t=30.8C h=-1.0% p=-1.0hPa 403.211 MHz Type=DFM17 ser=22035324 Radiosonde
WB7NNFD220353242022-12-06 12:20:2147.2221-116.7561198721074Clb=4.5m/s t=-58.0C h=-1.0% p=-1.0hPa 403.207 MHz Type=DFM17 ser=22035324 Radiosonde
KA7FVVD220353242022-12-06 12:19:5347.2227-116.7581366521045Clb=-0.9m/s t=-58.6C h=-1.0% p=-1.0hPa 403.211 MHz Type=DFM17 ser=22035324 Radiosonde
K7MTDD220353242022-12-06 12:19:1247.2236-116.7611075620981Clb=-0.2m/s t=-58.6C h=-1.0% p=-1.0hPa 403.211 MHz Type=DFM17 ser=22035324 Radiosonde
WB7NNFD220353242022-12-06 12:18:3847.2241-116.765827620910Clb=0.1m/s t=-58.2C h=-1.0% p=-1.0hPa 403.207 MHz Type=DFM17 ser=22035324 Radiosonde
KA7FVVD220353242022-12-06 12:18:1647.2244-116.76711010020868Clb=8.2m/s t=-58.1C h=-1.0% p=-1.0hPa 403.211 MHz Type=DFM17 ser=22035324 Radiosonde
K7MTDD220353242022-12-06 12:17:5347.2246-116.771788520811Clb=3.0m/s t=-58.1C h=-1.0% p=-1.0hPa 403.211 MHz Type=DFM17 ser=22035324 Radiosonde
WB7NNFD220353242022-12-06 12:17:2447.2246-116.7746610020743Clb=2.5m/s t=-57.6C h=-1.0% p=-1.0hPa 403.207 MHz Type=DFM17 ser=22035324 Radiosonde
KA7FVVD220353242022-12-06 12:17:0847.2246-116.777718920707Clb=1.0m/s t=-57.5C h=-1.0% p=-1.0hPa 403.211 MHz Type=DFM17 ser=22035324 Radiosonde
K7MTDD220353242022-12-06 12:16:4747.2245-116.78807820648Clb=8.7m/s t=-57.6C h=-1.0% p=-1.0hPa 403.211 MHz Type=DFM17 ser=22035324 Radiosonde
WB7NNFD220353242022-12-06 12:16:1647.2242-116.784779120563Clb=1.3m/s t=-57.0C h=-1.0% p=-1.0hPa 403.207 MHz Type=DFM17 ser=22035324 Radiosonde
KA7FVVD220353242022-12-06 12:16:0047.2242-116.786699120535Clb=7.5m/s t=-56.8C h=-1.0% p=-1.0hPa 403.211 MHz Type=DFM17 ser=22035324 Radiosonde
K7MTDD220353242022-12-06 12:15:5947.224-116.789654420476Clb=2.9m/s t=-56.3C h=-1.0% p=-1.0hPa 403.211 MHz Type=DFM17 ser=22035324 Radiosonde
WB7NNFD220353242022-12-06 12:15:5847.2239-116.7928810420386Clb=6.4m/s t=-55.8C h=-1.0% p=-1.0hPa 403.207 MHz Type=DFM17 ser=22035324 Radiosonde
K7MTDD220353242022-12-06 12:15:5647.2237-116.796656320278Clb=3.5m/s t=-55.0C h=-1.0% p=-1.0hPa 403.211 MHz Type=DFM17 ser=22035324 Radiosonde
WB7NNFD220353242022-12-06 12:15:5547.2236-116.8825020189Clb=1.0m/s t=-55.1C h=-1.0% p=-1.0hPa 403.207 MHz Type=DFM17 ser=22035324 Radiosonde
KA7FVVD220353242022-12-06 12:15:5447.2238-116.8011014620149Clb=5.2m/s t=-55.5C h=-1.0% p=-1.0hPa 403.211 MHz Type=DFM17 ser=22035324 Radiosonde
WB7NNFD220353242022-12-06 12:15:5247.2248-116.8061203120001Clb=1.2m/s t=-55.8C h=-1.0% p=-1.0hPa 403.211 MHz Type=DFM17 ser=22035324 Radiosonde
KA7FVVD220353242022-12-06 12:15:5147.2254-116.8081085919950Clb=5.2m/s t=-56.0C h=-1.0% p=-1.0hPa 403.211 MHz Type=DFM17 ser=22035324 Radiosonde
K7MTDD220353242022-12-06 12:15:5047.2258-116.8091413019904Clb=9.0m/s t=-56.0C h=-1.0% p=-1.0hPa 403.211 MHz Type=DFM17 ser=22035324 Radiosonde
WB7NNFD220353242022-12-06 12:15:4947.2265-116.8111303919834Clb=0.6m/s t=-56.1C h=-1.0% p=-1.0hPa 403.211 MHz Type=DFM17 ser=22035324 Radiosonde
KA7FVVD220353242022-12-06 12:15:4847.2269-116.8121564119800Clb=0.7m/s t=-56.3C h=-1.0% p=-1.0hPa 403.211 MHz Type=DFM17 ser=22035324 Radiosonde
K7MTDD220353242022-12-06 12:15:4747.2278-116.8141346519740Clb=6.9m/s t=-57.1C h=-1.0% p=-1.0hPa 403.211 MHz Type=DFM17 ser=22035324 Radiosonde
WB7NNFD220353242022-12-06 12:15:4547.2294-116.8171108919656Clb=5.7m/s t=-57.3C h=-1.0% p=-1.0hPa 403.211 MHz Type=DFM17 ser=22035324 Radiosonde
KA7FVVD220353242022-12-06 12:15:4447.2299-116.8181106319628Clb=6.0m/s t=-57.3C h=-1.0% p=-1.0hPa 403.211 MHz Type=DFM17 ser=22035324 Radiosonde
K7MTDD220353242022-12-06 12:15:3547.2312-116.821335219576Clb=7.3m/s t=-57.8C h=-1.0% p=-1.0hPa 403.211 MHz Type=DFM17 ser=22035324 Radiosonde
WB7NNFD220353242022-12-06 12:15:2547.2327-116.8221227419504Clb=2.0m/s t=-58.0C h=-1.0% p=-1.0hPa 403.211 MHz Type=DFM17 ser=22035324 Radiosonde
KA7FVVD220353242022-12-06 12:15:2347.2335-116.8231117219471Clb=-0.3m/s t=-57.8C h=-1.0% p=-1.0hPa 403.211 MHz Type=DFM17 ser=22035324 Radiosonde
K7MTDD220353242022-12-06 12:15:0847.235-116.8261177819412Clb=0.9m/s t=-57.7C h=-1.0% p=-1.0hPa 403.211 MHz Type=DFM17 ser=22035324 Radiosonde
WB7NNFD220353242022-12-06 12:14:5547.2365-116.8281159419361Clb=-0.5m/s t=-57.6C h=-1.0% p=-1.0hPa 403.211 MHz Type=DFM17 ser=22035324 Radiosonde
KA7FVVD220353242022-12-06 12:14:4447.2373-116.831119419336Clb=0.9m/s t=-57.5C h=-1.0% p=-1.0hPa 403.211 MHz Type=DFM17 ser=22035324 Radiosonde
K7MTDD220353242022-12-06 12:14:1847.2389-116.8321287819292Clb=7.8m/s t=-57.5C h=-1.0% p=-1.0hPa 403.211 MHz Type=DFM17 ser=22035324 Radiosonde
WB7NNFD220353242022-12-06 12:13:5047.2407-116.8351169119227Clb=3.3m/s t=-58.2C h=-1.0% p=-1.0hPa 403.211 MHz Type=DFM17 ser=22035324 Radiosonde
KA7FVVD220353242022-12-06 12:13:3647.2415-116.8371118119200Clb=2.2m/s t=-58.2C h=-1.0% p=-1.0hPa 403.211 MHz Type=DFM17 ser=22035324 Radiosonde
K7MTDD220353242022-12-06 12:13:1247.2428-116.841028119144Clb=1.5m/s t=-57.9C h=-1.0% p=-1.0hPa 403.211 MHz Type=DFM17 ser=22035324 Radiosonde
WB7NNFD220353242022-12-06 12:12:4047.2441-116.8431169119081Clb=5.1m/s t=-57.6C h=-1.0% p=-1.0hPa 403.211 MHz Type=DFM17 ser=22035324 Radiosonde
KA7FVVD220353242022-12-06 12:12:2547.2447-116.8451178919052Clb=7.3m/s t=-57.6C h=-1.0% p=-1.0hPa 403.211 MHz Type=DFM17 ser=22035324 Radiosonde
K7MTDD220353242022-12-06 12:11:5947.2459-116.847896518995Clb=3.6m/s t=-57.4C h=-1.0% p=-1.0hPa 403.211 MHz Type=DFM17 ser=22035324 Radiosonde
WB7NNFD220353242022-12-06 12:11:2847.2472-116.8511159118924Clb=5.7m/s t=-57.7C h=-1.0% p=-1.0hPa 403.211 MHz Type=DFM17 ser=22035324 Radiosonde
KA7FVVD220353242022-12-06 12:11:1347.2479-116.85212010618893Clb=7.4m/s t=-57.8C h=-1.0% p=-1.0hPa 403.211 MHz Type=DFM17 ser=22035324 Radiosonde
K7MTDD220353242022-12-06 12:10:4747.2491-116.8561029818831Clb=2.5m/s t=-57.7C h=-1.0% p=-1.0hPa 403.211 MHz Type=DFM17 ser=22035324 Radiosonde
WB7NNFD220353242022-12-06 12:09:5247.3282-117.031278715550Clb=5.5m/s t=-57.1C h=-1.0% p=-1.0hPa 403.207 MHz Type=DFM17 ser=22035324 Radiosonde
KA7FVVD220353242022-12-06 12:09:3447.3292-117.0321299315526Clb=3.5m/s t=-57.5C h=-1.0% p=-1.0hPa 403.211 MHz Type=DFM17 ser=22035324 Radiosonde
K7MTDD220353242022-12-06 12:09:0347.3308-117.0351219615483Clb=5.2m/s t=-57.9C h=-1.0% p=-1.0hPa 403.211 MHz Type=DFM17 ser=22035324 Radiosonde
WB7NNFD220353242022-12-06 12:08:3347.3328-117.03913311715425Clb=5.6m/s t=-57.8C h=-1.0% p=-1.0hPa 403.207 MHz Type=DFM17 ser=22035324 Radiosonde
KA7FVVD220353242022-12-06 12:08:1547.3338-117.0411319615396Clb=3.1m/s t=-58.0C h=-1.0% p=-1.0hPa 403.211 MHz Type=DFM17 ser=22035324 Radiosonde
K7MTDD220353242022-12-06 12:07:4447.3361-117.0471189815308Clb=6.2m/s t=-57.6C h=-1.0% p=-1.0hPa 403.211 MHz Type=DFM17 ser=22035324 Radiosonde
WB7NNFD220353242022-12-06 12:07:1047.3367-117.0481119315282Clb=4.1m/s t=-57.5C h=-1.0% p=-1.0hPa 403.207 MHz Type=DFM17 ser=22035324 Radiosonde
KA7FVVD220353242022-12-06 12:06:5647.3377-117.05112510215244Clb=3.3m/s t=-57.2C h=-1.0% p=-1.0hPa 403.211 MHz Type=DFM17 ser=22035324 Radiosonde
K7MTDD220353242022-12-06 12:06:3347.339-117.0551188715183Clb=5.5m/s t=-56.7C h=-1.0% p=-1.0hPa 403.211 MHz Type=DFM17 ser=22035324 Radiosonde
WB7NNFD220353242022-12-06 12:06:0047.3401-117.0581027815134Clb=3.0m/s t=-56.3C h=-1.0% p=-1.0hPa 403.207 MHz Type=DFM17 ser=22035324 Radiosonde
KA7FVVD220353242022-12-06 12:05:4547.3408-117.061198315100Clb=6.1m/s t=-56.2C h=-1.0% p=-1.0hPa 403.211 MHz Type=DFM17 ser=22035324 Radiosonde
K7MTDD220353242022-12-06 12:05:1747.3418-117.0631219415048Clb=5.6m/s t=-56.2C h=-1.0% p=-1.0hPa 403.211 MHz Type=DFM17 ser=22035324 Radiosonde
WB7NNFD220353242022-12-06 12:04:4447.3429-117.0671069414985Clb=5.9m/s t=-56.1C h=-1.0% p=-1.0hPa 403.211 MHz Type=DFM17 ser=22035324 Radiosonde
KA7FVVD220353242022-12-06 12:04:2547.3434-117.0691078914953Clb=5.8m/s t=-56.1C h=-1.0% p=-1.0hPa 403.211 MHz Type=DFM17 ser=22035324 Radiosonde
WB7NNFD220353242022-12-06 12:03:2547.3456-117.07710110914836Clb=4.8m/s t=-56.2C h=-1.0% p=-1.0hPa 403.207 MHz Type=DFM17 ser=22035324 Radiosonde
KA7FVVD220353242022-12-06 12:03:1047.3461-117.0799810614809Clb=0.5m/s t=-56.4C h=-1.0% p=-1.0hPa 403.211 MHz Type=DFM17 ser=22035324 Radiosonde
WB7NNFD220353242022-12-06 12:02:1947.3476-117.0871097014697Clb=6.8m/s t=-56.8C h=-1.0% p=-1.0hPa 403.207 MHz Type=DFM17 ser=22035324 Radiosonde
KA7FVVD220353242022-12-06 12:02:0347.3481-117.0891098514661Clb=4.9m/s t=-56.8C h=-1.0% p=-1.0hPa 403.211 MHz Type=DFM17 ser=22035324 Radiosonde
WB7NNFD220353242022-12-06 12:01:1347.3503-117.0971127414544Clb=3.3m/s t=-56.6C h=-1.0% p=-1.0hPa 403.211 MHz Type=DFM17 ser=22035324 Radiosonde
KA7FVVD220353242022-12-06 12:00:5947.3511-117.09911510214506Clb=3.4m/s t=-56.3C h=-1.0% p=-1.0hPa 403.211 MHz Type=DFM17 ser=22035324 Radiosonde
WB7NNFD220353242022-12-06 11:59:5847.3536-117.1061299414397Clb=4.8m/s t=-56.1C h=-1.0% p=-1.0hPa 403.211 MHz Type=DFM17 ser=22035324 Radiosonde
KA7FVVD220353242022-12-06 11:59:4147.3545-117.10812110014366Clb=4.0m/s t=-55.9C h=-1.0% p=-1.0hPa 403.211 MHz Type=DFM17 ser=22035324 Radiosonde
WB7NNFD220353242022-12-06 11:58:3847.3575-117.11510612214263Clb=6.8m/s t=-55.5C h=-1.0% p=-1.0hPa 403.211 MHz Type=DFM17 ser=22035324 Radiosonde
KA7FVVD220353242022-12-06 11:58:1947.3585-117.11811610014214Clb=6.8m/s t=-55.1C h=-1.0% p=-1.0hPa 403.211 MHz Type=DFM17 ser=22035324 Radiosonde
WB7NNFD220353242022-12-06 11:57:1747.3607-117.12611010614101Clb=8.5m/s t=-54.7C h=-1.0% p=-1.0hPa 403.211 MHz Type=DFM17 ser=22035324 Radiosonde
KA7FVVD220353242022-12-06 11:57:0347.3612-117.12810811114070Clb=2.6m/s t=-54.5C h=-1.0% p=-1.0hPa 403.211 MHz Type=DFM17 ser=22035324 Radiosonde
WB7NNFD220353242022-12-06 11:56:1347.3631-117.1361009613941Clb=2.2m/s t=-54.7C h=-1.0% p=-1.0hPa 403.207 MHz Type=DFM17 ser=22035324 Radiosonde
KA7FVVD220353242022-12-06 11:55:5947.364-117.1391058913902Clb=8.1m/s t=-54.5C h=-1.0% p=-1.0hPa 403.211 MHz Type=DFM17 ser=22035324 Radiosonde
WB7NNFD220353242022-12-06 11:55:0547.3666-117.14713310013771Clb=8.1m/s t=-54.6C h=-1.0% p=-1.0hPa 403.207 MHz Type=DFM17 ser=22035324 Radiosonde
KA7FVVD220353242022-12-06 11:54:4847.3674-117.1491249613743Clb=5.6m/s t=-54.6C h=-1.0% p=-1.0hPa 403.211 MHz Type=DFM17 ser=22035324 Radiosonde
WB7NNFD220353242022-12-06 11:53:5147.3702-117.1551308513636Clb=3.0m/s t=-55.2C h=-1.0% p=-1.0hPa 403.211 MHz Type=DFM17 ser=22035324 Radiosonde
KA7FVVD220353242022-12-06 11:53:3347.371-117.1571148513602Clb=3.9m/s t=-55.4C h=-1.0% p=-1.0hPa 403.211 MHz Type=DFM17 ser=22035324 Radiosonde
WB7NNFD220353242022-12-06 11:52:3047.3743-117.1631439313483Clb=9.0m/s t=-55.9C h=-1.0% p=-1.0hPa 403.211 MHz Type=DFM17 ser=22035324 Radiosonde
KA7FVVD220353242022-12-06 11:52:1447.3755-117.1651189113443Clb=1.8m/s t=-55.9C h=-1.0% p=-1.0hPa 403.211 MHz Type=DFM17 ser=22035324 Radiosonde
WB7NNFD220353242022-12-06 11:51:4547.379-117.1711318913330Clb=6.5m/s t=-56.9C h=-1.0% p=-1.0hPa 403.211 MHz Type=DFM17 ser=22035324 Radiosonde
WB7NNFD220353242022-12-06 11:51:1247.3841-117.17913410613169Clb=7.2m/s t=-57.9C h=-1.0% p=-1.0hPa 403.211 MHz Type=DFM17 ser=22035324 Radiosonde
KA7FVVD220353242022-12-06 11:51:0347.3855-117.1811409413131Clb=7.0m/s t=-58.2C h=-1.0% p=-1.0hPa 403.211 MHz Type=DFM17 ser=22035324 Radiosonde
WB7NNFD220353242022-12-06 11:50:4747.3898-117.1861417813013Clb=8.3m/s t=-58.0C h=-1.0% p=-1.0hPa 403.211 MHz Type=DFM17 ser=22035324 Radiosonde
KA7FVVD220353242022-12-06 11:50:4547.391-117.18813212412977Clb=8.8m/s t=-58.1C h=-1.0% p=-1.0hPa 403.211 MHz Type=DFM17 ser=22035324 Radiosonde
WB7NNFD220353242022-12-06 11:50:1247.3954-117.19413711912854Clb=2.1m/s t=-58.7C h=-1.0% p=-1.0hPa 403.211 MHz Type=DFM17 ser=22035324 Radiosonde
KA7FVVD220353242022-12-06 11:50:0647.3966-117.1961388112817Clb=3.1m/s t=-58.8C h=-1.0% p=-1.0hPa 403.211 MHz Type=DFM17 ser=22035324 Radiosonde
WB7NNFD220353242022-12-06 11:49:5847.401-117.20113111112693Clb=7.1m/s t=-59.2C h=-1.0% p=-1.0hPa 403.211 MHz Type=DFM17 ser=22035324 Radiosonde
KA7FVVD220353242022-12-06 11:49:5647.4023-117.2031479312659Clb=7.0m/s t=-59.2C h=-1.0% p=-1.0hPa 403.211 MHz Type=DFM17 ser=22035324 Radiosonde
WB7NNFD220353242022-12-06 11:49:4847.4067-117.2114210412534Clb=3.4m/s t=-58.6C h=-1.0% p=-1.0hPa 403.211 MHz Type=DFM17 ser=22035324 Radiosonde
KA7FVVD220353242022-12-06 11:49:4647.408-117.21212711112497Clb=3.3m/s t=-58.8C h=-1.0% p=-1.0hPa 403.211 MHz Type=DFM17 ser=22035324 Radiosonde
WB7NNFD220353242022-12-06 11:49:2547.4124-117.21914310412375Clb=6.4m/s t=-58.0C h=-1.0% p=-1.0hPa 403.211 MHz Type=DFM17 ser=22035324 Radiosonde
KA7FVVD220353242022-12-06 11:49:1947.4138-117.22113210612336Clb=5.0m/s t=-57.9C h=-1.0% p=-1.0hPa 403.211 MHz Type=DFM17 ser=22035324 Radiosonde
WB7NNFD220353242022-12-06 11:48:5847.4173-117.2281139812208Clb=3.0m/s t=-58.7C h=-1.0% p=-1.0hPa 403.211 MHz Type=DFM17 ser=22035324 Radiosonde
KA7FVVD220353242022-12-06 11:48:5547.4183-117.23112010912176Clb=4.7m/s t=-58.8C h=-1.0% p=-1.0hPa 403.211 MHz Type=DFM17 ser=22035324 Radiosonde
WB7NNFD220353242022-12-06 11:48:5047.4211-117.2391279312057Clb=4.1m/s t=-58.9C h=-1.0% p=-1.0hPa 403.211 MHz Type=DFM17 ser=22035324 Radiosonde
KA7FVVD220353242022-12-06 11:48:4947.4223-117.24212110712014Clb=10.0m/s t=-60.2C h=-1.0% p=-1.0hPa 403.211 MHz Type=DFM17 ser=22035324 Radiosonde
WB7NNFD220353242022-12-06 11:48:4847.4265-117.2511912211905Clb=3.3m/s t=-62.4C h=-1.0% p=-1.0hPa 403.211 MHz Type=DFM17 ser=22035324 Radiosonde
KA7FVVD220353242022-12-06 11:48:4747.4272-117.25112110011888Clb=5.1m/s t=-62.5C h=-1.0% p=-1.0hPa 403.211 MHz Type=DFM17 ser=22035324 Radiosonde
WB7NNFD220353242022-12-06 11:48:4447.43-117.2581117811762Clb=5.3m/s t=-62.4C h=-1.0% p=-1.0hPa 403.211 MHz Type=DFM17 ser=22035324 Radiosonde
WB7NNFD220353242022-12-06 11:48:4247.4336-117.2671426711585Clb=3.6m/s t=-61.3C h=-1.0% p=-1.0hPa 403.211 MHz Type=DFM17 ser=22035324 Radiosonde
WB7NNFD220353242022-12-06 11:48:4047.4375-117.2751299111428Clb=7.9m/s t=-62.5C h=-1.0% p=-1.0hPa 403.211 MHz Type=DFM17 ser=22035324 Radiosonde
KA7FVVD220353242022-12-06 11:48:3947.4384-117.2761358011400Clb=5.4m/s t=-62.6C h=-1.0% p=-1.0hPa 403.211 MHz Type=DFM17 ser=22035324 Radiosonde
WB7NNFD220353242022-12-06 11:48:3847.4418-117.2811387811282Clb=6.4m/s t=-62.2C h=-1.0% p=-1.0hPa 403.211 MHz Type=DFM17 ser=22035324 Radiosonde
KA7FVVD220353242022-12-06 11:48:3747.4429-117.2821496511245Clb=5.9m/s t=-62.1C h=-1.0% p=-1.0hPa 403.211 MHz Type=DFM17 ser=22035324 Radiosonde
WB7NNFD220353242022-12-06 11:48:3347.4471-117.2861409811121Clb=2.5m/s t=-61.9C h=-1.0% p=-1.0hPa 403.211 MHz Type=DFM17 ser=22035324 Radiosonde
KA7FVVD220353242022-12-06 11:48:2847.4484-117.2871528911084Clb=5.9m/s t=-61.8C h=-1.0% p=-1.0hPa 403.211 MHz Type=DFM17 ser=22035324 Radiosonde
WB7NNFD220353242022-12-06 11:47:4047.4537-117.29115410010963Clb=7.6m/s t=-61.5C h=-1.0% p=-1.0hPa 403.211 MHz Type=DFM17 ser=22035324 Radiosonde
KA7FVVD220353242022-12-06 11:47:2547.455-117.2921569110933Clb=2.6m/s t=-61.3C h=-1.0% p=-1.0hPa 403.211 MHz Type=DFM17 ser=22035324 Radiosonde
WB7NNFD220353242022-12-06 11:46:3647.4613-117.29715310610806Clb=4.8m/s t=-61.1C h=-1.0% p=-1.0hPa 403.211 MHz Type=DFM17 ser=22035324 Radiosonde
KA7FVVD220353242022-12-06 11:46:2347.4627-117.29814112010777Clb=1.5m/s t=-61.1C h=-1.0% p=-1.0hPa 403.211 MHz Type=DFM17 ser=22035324 Radiosonde
WB7NNFD220353242022-12-06 11:45:3847.4682-117.30414811110671Clb=5.8m/s t=-61.8C h=-1.0% p=-1.0hPa 403.211 MHz Type=DFM17 ser=22035324 Radiosonde
KA7FVVD220353242022-12-06 11:45:2347.4698-117.3051439310639Clb=7.1m/s t=-61.8C h=-1.0% p=-1.0hPa 403.211 MHz Type=DFM17 ser=22035324 Radiosonde
WB7NNFD220353242022-12-06 11:44:3747.4751-117.31113811710522Clb=1.8m/s t=-62.3C h=-1.0% p=-1.0hPa 403.211 MHz Type=DFM17 ser=22035324 Radiosonde
KA7FVVD220353242022-12-06 11:44:2147.4765-117.31314211510491Clb=6.6m/s t=-62.2C h=-1.0% p=-1.0hPa 403.211 MHz Type=DFM17 ser=22035324 Radiosonde
WB7NNFD220353242022-12-06 11:43:3647.4811-117.3181348510388Clb=3.8m/s t=-62.6C h=-1.0% p=-1.0hPa 403.211 MHz Type=DFM17 ser=22035324 Radiosonde
KA7FVVD220353242022-12-06 11:43:2247.4821-117.3214610910363Clb=3.0m/s t=-62.7C h=-1.0% p=-1.0hPa 403.211 MHz Type=DFM17 ser=22035324 Radiosonde
WB7NNFD220353242022-12-06 11:42:3047.4859-117.3261279410247Clb=6.4m/s t=-62.0C h=-1.0% p=-1.0hPa 403.211 MHz Type=DFM17 ser=22035324 Radiosonde
KA7FVVD220353242022-12-06 11:42:1447.4871-117.3271309310205Clb=8.9m/s t=-61.6C h=-1.0% p=-1.0hPa 403.211 MHz Type=DFM17 ser=22035324 Radiosonde
WB7NNFD220353242022-12-06 11:41:2847.4907-117.3331406510054Clb=4.5m/s t=-60.3C h=-1.0% p=-1.0hPa 403.211 MHz Type=DFM17 ser=22035324 Radiosonde
KA7FVVD220353242022-12-06 11:41:1547.4918-117.33414510210015Clb=6.7m/s t=-60.0C h=-1.0% p=-1.0hPa 403.211 MHz Type=DFM17 ser=22035324 Radiosonde
WB7NNFD220353242022-12-06 11:40:3047.4963-117.3381481159860Clb=2.4m/s t=-58.9C h=-1.0% p=-1.0hPa 403.211 MHz Type=DFM17 ser=22035324 Radiosonde
KA7FVVD220353242022-12-06 11:40:1847.4976-117.339148819831Clb=4.7m/s t=-58.7C h=-1.0% p=-1.0hPa 403.211 MHz Type=DFM17 ser=22035324 Radiosonde
WA7BFND220353242022-12-06 11:39:5347.501-117.342153879758Clb=5.3m/s t=-273.0C h=-1.0% p=-1.0hPa 403.207 MHz Type=DFM17 ser=22035324 Radiosonde
WB7NNFD220353242022-12-06 11:39:4647.5025-117.343154769729Clb=7.0m/s t=-57.9C h=-1.0% p=-1.0hPa 403.211 MHz Type=DFM17 ser=22035324 Radiosonde
KA7FVVD220353242022-12-06 11:39:4147.5042-117.344159859696Clb=6.6m/s t=-57.7C h=-1.0% p=-1.0hPa 403.211 MHz Type=DFM17 ser=22035324 Radiosonde
WB7NNFD220353242022-12-06 11:39:1747.5089-117.347153819601Clb=4.2m/s t=-57.0C h=-1.0% p=-1.0hPa 403.211 MHz Type=DFM17 ser=22035324 Radiosonde
KA7FVVD220353242022-12-06 11:39:0847.5104-117.348156809571Clb=6.2m/s t=-56.9C h=-1.0% p=-1.0hPa 403.211 MHz Type=DFM17 ser=22035324 Radiosonde
WB7NNFD220353242022-12-06 11:38:4447.5152-117.3521501159471Clb=3.7m/s t=-56.1C h=-1.0% p=-1.0hPa 403.211 MHz Type=DFM17 ser=22035324 Radiosonde
KA7FVVD220353242022-12-06 11:38:3847.5166-117.353159819443Clb=2.6m/s t=-55.9C h=-1.0% p=-1.0hPa 403.211 MHz Type=DFM17 ser=22035324 Radiosonde
WB7NNFD220353242022-12-06 11:38:1447.5218-117.3571391029328Clb=7.5m/s t=-54.9C h=-1.0% p=-1.0hPa 403.211 MHz Type=DFM17 ser=22035324 Radiosonde
KA7FVVD220353242022-12-06 11:38:0647.5231-117.358171809297Clb=4.8m/s t=-54.7C h=-1.0% p=-1.0hPa 403.211 MHz Type=DFM17 ser=22035324 Radiosonde
WB7NNFD220353242022-12-06 11:37:4247.5282-117.3611561199185Clb=7.6m/s t=-53.9C h=-1.0% p=-1.0hPa 403.211 MHz Type=DFM17 ser=22035324 Radiosonde
KA7FVVD220353242022-12-06 11:37:3947.53-117.3621601199139Clb=5.0m/s t=-53.6C h=-1.0% p=-1.0hPa 403.211 MHz Type=DFM17 ser=22035324 Radiosonde
WB7NNFD220353242022-12-06 11:37:1147.5351-117.366143969038Clb=5.0m/s t=-52.8C h=-1.0% p=-1.0hPa 403.211 MHz Type=DFM17 ser=22035324 Radiosonde
KA7FVVD220353242022-12-06 11:37:0447.5369-117.3671411069003Clb=5.8m/s t=-52.5C h=-1.0% p=-1.0hPa 403.211 MHz Type=DFM17 ser=22035324 Radiosonde
WB7NNFD220353242022-12-06 11:36:4147.5421-117.371651098894Clb=2.1m/s t=-51.7C h=-1.0% p=-1.0hPa 403.211 MHz Type=DFM17 ser=22035324 Radiosonde
KA7FVVD220353242022-12-06 11:36:3347.5439-117.3711651098858Clb=2.8m/s t=-51.4C h=-1.0% p=-1.0hPa 403.211 MHz Type=DFM17 ser=22035324 Radiosonde
WB7NNFD220353242022-12-06 11:36:2847.5487-117.375146968752Clb=5.0m/s t=-50.6C h=-1.0% p=-1.0hPa 403.211 MHz Type=DFM17 ser=22035324 Radiosonde
WB7NNFD220353242022-12-06 11:36:2647.5555-117.381471028595Clb=4.6m/s t=-49.4C h=-1.0% p=-1.0hPa 403.211 MHz Type=DFM17 ser=22035324 Radiosonde
WA7BFND220353242022-12-06 11:36:2447.5604-117.384142808486Clb=3.2m/s t=-48.6C h=-1.0% p=-1.0hPa 403.207 MHz Type=DFM17 ser=22035324 Radiosonde
KA7FVVD220353242022-12-06 11:36:2347.5633-117.387152858419Clb=4.2m/s t=-48.1C h=-1.0% p=-1.0hPa 403.211 MHz Type=DFM17 ser=22035324 Radiosonde
WB7NNFD220353242022-12-06 11:36:1847.5681-117.3921451068273Clb=8.2m/s t=-47.1C h=-1.0% p=-1.0hPa 403.211 MHz Type=DFM17 ser=22035324 Radiosonde
KA7FVVD220353242022-12-06 11:36:1647.5688-117.393133878250Clb=8.1m/s t=-46.9C h=-1.0% p=-1.0hPa 403.211 MHz Type=DFM17 ser=22035324 Radiosonde
WA7BFND220353242022-12-06 11:35:5947.5717-117.396140988161Clb=7.5m/s t=-46.2C h=-1.0% p=-1.0hPa 403.207 MHz Type=DFM17 ser=22035324 Radiosonde
WB7NNFD220353242022-12-06 11:35:4847.5728-117.397141948130Clb=5.2m/s t=-45.9C h=-1.0% p=-1.0hPa 403.211 MHz Type=DFM17 ser=22035324 Radiosonde
KA7FVVD220353242022-12-06 11:35:3547.5742-117.399134728086Clb=9.0m/s t=-45.6C h=-1.0% p=-1.0hPa 403.211 MHz Type=DFM17 ser=22035324 Radiosonde
WA7BFND220353242022-12-06 11:35:0747.5774-117.403151937998Clb=4.0m/s t=-44.9C h=-1.0% p=-1.0hPa 403.207 MHz Type=DFM17 ser=22035324 Radiosonde
WB7NNFD220353242022-12-06 11:34:5347.5784-117.404134747954Clb=4.8m/s t=-44.6C h=-1.0% p=-1.0hPa 403.211 MHz Type=DFM17 ser=22035324 Radiosonde
KA7FVVD220353242022-12-06 11:34:4047.5794-117.406134987918Clb=5.7m/s t=-44.2C h=-1.0% p=-1.0hPa 403.211 MHz Type=DFM17 ser=22035324 Radiosonde
WA7BFND220353242022-12-06 11:34:0747.5821-117.41140947822Clb=7.1m/s t=-43.6C h=-1.0% p=-1.0hPa 403.207 MHz Type=DFM17 ser=22035324 Radiosonde
WB7NNFD220353242022-12-06 11:33:5647.5832-117.4111321027776Clb=7.6m/s t=-43.3C h=-1.0% p=-1.0hPa 403.211 MHz Type=DFM17 ser=22035324 Radiosonde
KA7FVVD220353242022-12-06 11:33:4147.5843-117.4121401067722Clb=7.1m/s t=-42.9C h=-1.0% p=-1.0hPa 403.211 MHz Type=DFM17 ser=22035324 Radiosonde
WA7BFND220353242022-12-06 11:33:1147.5869-117.416146707628Clb=6.1m/s t=-42.1C h=-1.0% p=-1.0hPa 403.211 MHz Type=DFM17 ser=22035324 Radiosonde
WB7NNFD220353242022-12-06 11:33:0047.588-117.418132947590Clb=5.8m/s t=-41.8C h=-1.0% p=-1.0hPa 403.211 MHz Type=DFM17 ser=22035324 Radiosonde
KA7FVVD220353242022-12-06 11:32:4347.5893-117.42139967550Clb=5.6m/s t=-41.5C h=-1.0% p=-1.0hPa 403.211 MHz Type=DFM17 ser=22035324 Radiosonde
WA7BFND220353242022-12-06 11:32:1247.5917-117.424131807447Clb=8.8m/s t=-40.9C h=-1.0% p=-1.0hPa 403.207 MHz Type=DFM17 ser=22035324 Radiosonde
WB7NNFD220353242022-12-06 11:32:0047.5925-117.425117727410Clb=5.9m/s t=-40.6C h=-1.0% p=-1.0hPa 403.211 MHz Type=DFM17 ser=22035324 Radiosonde
KA7FVVD220353242022-12-06 11:31:5347.5935-117.427129677367Clb=7.0m/s t=-40.3C h=-1.0% p=-1.0hPa 403.211 MHz Type=DFM17 ser=22035324 Radiosonde
WA7BFND220353242022-12-06 11:31:3647.5958-117.431123987272Clb=6.4m/s t=-39.5C h=-1.0% p=-1.0hPa 403.207 MHz Type=DFM17 ser=22035324 Radiosonde
WB7NNFD220353242022-12-06 11:31:2947.5968-117.432139767237Clb=3.9m/s t=-39.3C h=-1.0% p=-1.0hPa 403.211 MHz Type=DFM17 ser=22035324 Radiosonde
KA7FVVD220353242022-12-06 11:31:2247.5977-117.434130837207Clb=4.1m/s t=-39.2C h=-1.0% p=-1.0hPa 403.211 MHz Type=DFM17 ser=22035324 Radiosonde
WA7BFND220353242022-12-06 11:31:1347.6002-117.437130937112Clb=4.5m/s t=-38.7C h=-1.0% p=-1.0hPa 403.207 MHz Type=DFM17 ser=22035324 Radiosonde
WA7BFND220353242022-12-06 11:31:1247.6054-117.445140766905Clb=3.9m/s t=-37.0C h=-1.0% p=-1.0hPa 403.207 MHz Type=DFM17 ser=22035324 Radiosonde
WB7NNFD220353242022-12-06 11:31:1147.6057-117.445137746895Clb=5.0m/s t=-37.0C h=-1.0% p=-1.0hPa 403.211 MHz Type=DFM17 ser=22035324 Radiosonde
WA7BFND220353242022-12-06 11:31:1047.6098-117.452125856717Clb=6.7m/s t=-35.5C h=-1.0% p=-1.0hPa 403.207 MHz Type=DFM17 ser=22035324 Radiosonde
WB7NNFD220353242022-12-06 11:31:0447.6098-117.452125856717Clb=6.7m/s t=-35.5C h=-1.0% p=-1.0hPa 403.211 MHz Type=DFM17 ser=22035324 Radiosonde
KA7FVVD220353242022-12-06 11:30:5547.6109-117.454140746669Clb=5.3m/s t=-35.1C h=-1.0% p=-1.0hPa 403.211 MHz Type=DFM17 ser=22035324 Radiosonde
WA7BFND220353242022-12-06 11:30:3047.6134-117.458125986571Clb=4.5m/s t=-34.2C h=-1.0% p=-1.0hPa 403.207 MHz Type=DFM17 ser=22035324 Radiosonde
WB7NNFD220353242022-12-06 11:30:1947.6139-117.459135966547Clb=4.9m/s t=-34.0C h=-1.0% p=-1.0hPa 403.211 MHz Type=DFM17 ser=22035324 Radiosonde
KA7FVVD220353242022-12-06 11:30:0847.6148-117.461139706509Clb=5.2m/s t=-33.6C h=-1.0% p=-1.0hPa 403.211 MHz Type=DFM17 ser=22035324 Radiosonde
WA7BFND220353242022-12-06 11:29:4147.6175-117.465134806384Clb=6.9m/s t=-32.7C h=-1.0% p=-1.0hPa 403.207 MHz Type=DFM17 ser=22035324 Radiosonde
WB7NNFD220353242022-12-06 11:29:3147.618-117.466133746365Clb=2.8m/s t=-32.6C h=-1.0% p=-1.0hPa 403.211 MHz Type=DFM17 ser=22035324 Radiosonde
KA7FVVD220353242022-12-06 11:29:1847.6192-117.468136946323Clb=5.9m/s t=-32.3C h=-1.0% p=-1.0hPa 403.211 MHz Type=DFM17 ser=22035324 Radiosonde
WA7BFND220353242022-12-06 11:28:4747.622-117.472126726228Clb=4.9m/s t=-31.8C h=-1.0% p=-1.0hPa 403.207 MHz Type=DFM17 ser=22035324 Radiosonde
WB7NNFD220353242022-12-06 11:28:3647.6226-117.473140896207Clb=5.8m/s t=-31.6C h=-1.0% p=-1.0hPa 403.211 MHz Type=DFM17 ser=22035324 Radiosonde
KA7FVVD220353242022-12-06 11:28:2347.6238-117.475139746168Clb=5.6m/s t=-31.4C h=-1.0% p=-1.0hPa 403.211 MHz Type=DFM17 ser=22035324 Radiosonde
WA7BFND220353242022-12-06 11:27:5947.6262-117.478140896076Clb=4.8m/s t=-30.9C h=-1.0% p=-1.0hPa 403.207 MHz Type=DFM17 ser=22035324 Radiosonde
WB7NNFD220353242022-12-06 11:27:5247.6273-117.48129946046Clb=4.7m/s t=-30.7C h=-1.0% p=-1.0hPa 403.211 MHz Type=DFM17 ser=22035324 Radiosonde
KA7FVVD220353242022-12-06 11:27:4447.6287-117.481142936002Clb=4.9m/s t=-30.5C h=-1.0% p=-1.0hPa 403.211 MHz Type=DFM17 ser=22035324 Radiosonde
WA7BFND220353242022-12-06 11:27:2947.6315-117.485137655889Clb=6.7m/s t=-30.1C h=-1.0% p=-1.0hPa 403.207 MHz Type=DFM17 ser=22035324 Radiosonde
WB7NNFD220353242022-12-06 11:27:2247.632-117.485155765868Clb=4.8m/s t=-29.9C h=-1.0% p=-1.0hPa 403.211 MHz Type=DFM17 ser=22035324 Radiosonde
KA7FVVD220353242022-12-06 11:27:1547.6334-117.487136615820Clb=4.7m/s t=-29.7C h=-1.0% p=-1.0hPa 403.211 MHz Type=DFM17 ser=22035324 Radiosonde
WA7BFND220353242022-12-06 11:26:5747.636-117.49154805720Clb=3.8m/s t=-29.1C h=-1.0% p=-1.0hPa 403.207 MHz Type=DFM17 ser=22035324 Radiosonde
WB7NNFD220353242022-12-06 11:26:5047.6378-117.492139985662Clb=5.8m/s t=-28.7C h=-1.0% p=-1.0hPa 403.204 MHz Type=DFM17 ser=22035324 Radiosonde
KA7FVVD220353242022-12-06 11:26:4247.6387-117.492141915629Clb=8.6m/s t=-28.4C h=-1.0% p=-1.0hPa 403.211 MHz Type=DFM17 ser=22035324 Radiosonde
WA7BFND220353242022-12-06 11:26:2647.6411-117.495147635531Clb=3.5m/s t=-27.5C h=-1.0% p=-1.0hPa 403.207 MHz Type=DFM17 ser=22035324 Radiosonde
WB7NNFD220353242022-12-06 11:26:1947.6425-117.497136615468Clb=5.5m/s t=-27.2C h=-1.0% p=-1.0hPa 403.204 MHz Type=DFM17 ser=22035324 Radiosonde
WA7BFND220353242022-12-06 11:26:1847.6457-117.501123635332Clb=6.0m/s t=-273.0C h=-1.0% p=-1.0hPa 403.207 MHz Type=DFM17 ser=22035324 Radiosonde
WA7BFND220353242022-12-06 11:26:0547.6501-117.508117705136Clb=6.1m/s t=-25.1C h=-1.0% p=-1.0hPa 403.207 MHz Type=DFM17 ser=22035324 Radiosonde
KA7FVVD220353242022-12-06 11:25:4347.6512-117.51142565092Clb=4.9m/s t=-24.7C h=-1.0% p=-1.0hPa 403.211 MHz Type=DFM17 ser=22035324 Radiosonde
WA7BFND220353242022-12-06 11:25:1747.6532-117.513125675004Clb=4.8m/s t=-24.0C h=-1.0% p=-1.0hPa 403.207 MHz Type=DFM17 ser=22035324 Radiosonde
WB7NNFD220353242022-12-06 11:25:0647.6541-117.514126834960Clb=5.8m/s t=-23.8C h=-1.0% p=-1.0hPa 403.204 MHz Type=DFM17 ser=22035324 Radiosonde
KA7FVVD220353242022-12-06 11:24:5547.6549-117.515134614918Clb=5.6m/s t=-23.5C h=-1.0% p=-1.0hPa 403.211 MHz Type=DFM17 ser=22035324 Radiosonde
WA7BFND220353242022-12-06 11:24:3147.657-117.519142744811Clb=4.8m/s t=-22.8C h=-1.0% p=-1.0hPa 403.211 MHz Type=DFM17 ser=22035324 Radiosonde
KA7FVVD220353242022-12-06 11:24:1047.6587-117.521141674727Clb=7.7m/s t=-22.2C h=-1.0% p=-1.0hPa 403.211 MHz Type=DFM17 ser=22035324 Radiosonde
WA7BFND220353242022-12-06 11:23:5047.6608-117.525133614615Clb=7.6m/s t=-19.8C h=-1.0% p=-1.0hPa 403.211 MHz Type=DFM17 ser=22035324 Radiosonde
KA7FVVD220353242022-12-06 11:23:3647.6623-117.527145784526Clb=4.5m/s t=-20.7C h=-1.0% p=-1.0hPa 403.211 MHz Type=DFM17 ser=22035324 Radiosonde
WA7BFND220353242022-12-06 11:23:2047.6648-117.532115574383Clb=5.2m/s t=-19.4C h=-1.0% p=-1.0hPa 403.207 MHz Type=DFM17 ser=22035324 Radiosonde
KA7FVVD220353242022-12-06 11:23:0547.6657-117.533129854341Clb=6.4m/s t=-19.1C h=-1.0% p=-1.0hPa 403.211 MHz Type=DFM17 ser=22035324 Radiosonde
WA7BFND220353242022-12-06 11:22:4847.6675-117.537127874239Clb=4.7m/s t=-18.4C h=-1.0% p=-1.0hPa 403.207 MHz Type=DFM17 ser=22035324 Radiosonde
KA7FVVD220353242022-12-06 11:22:3447.6691-117.54110704154Clb=5.6m/s t=-17.7C h=-1.0% p=-1.0hPa 403.211 MHz Type=DFM17 ser=22035324 Radiosonde
WA7BFND220353242022-12-06 11:22:1847.6706-117.544122854054Clb=6.0m/s t=-16.8C h=-1.0% p=-1.0hPa 403.211 MHz Type=DFM17 ser=22035324 Radiosonde
WB7NNFD220353242022-12-06 11:22:1147.6718-117.548109803977Clb=5.2m/s t=-16.2C h=-1.0% p=-1.0hPa 403.204 MHz Type=DFM17 ser=22035324 Radiosonde
KA7FVVD220353242022-12-06 11:22:0347.6718-117.548109803977Clb=5.2m/s t=-16.2C h=-1.0% p=-1.0hPa 403.211 MHz Type=DFM17 ser=22035324 Radiosonde
WA7BFND220353242022-12-06 11:21:5147.6731-117.552128723870Clb=5.1m/s t=-15.4C h=-1.0% p=-1.0hPa 403.211 MHz Type=DFM17 ser=22035324 Radiosonde
WA7BFND220353242022-12-06 11:21:3947.6762-117.559116703691Clb=6.7m/s t=-14.2C h=-1.0% p=-1.0hPa 403.211 MHz Type=DFM17 ser=22035324 Radiosonde
WB7NNFD220353242022-12-06 11:21:2947.6769-117.561125613650Clb=4.3m/s t=-14.0C h=-1.0% p=-1.0hPa 403.204 MHz Type=DFM17 ser=22035324 Radiosonde
KA7FVVD220353242022-12-06 11:21:1947.6777-117.562122763611Clb=7.6m/s t=-13.8C h=-1.0% p=-1.0hPa 403.211 MHz Type=DFM17 ser=22035324 Radiosonde
WA7BFND220353242022-12-06 11:20:5647.6795-117.566117703509Clb=6.9m/s t=-13.8C h=-1.0% p=-1.0hPa 403.211 MHz Type=DFM17 ser=22035324 Radiosonde
WB7NNFD220353242022-12-06 11:20:4747.6804-117.567136463472Clb=5.4m/s t=-14.1C h=-1.0% p=-1.0hPa 403.204 MHz Type=DFM17 ser=22035324 Radiosonde
KA7FVVD220353242022-12-06 11:20:3747.6811-117.569135523424Clb=6.5m/s t=-13.9C h=-1.0% p=-1.0hPa 403.211 MHz Type=DFM17 ser=22035324 Radiosonde
WA7BFND220353242022-12-06 11:20:1647.6821-117.572124693340Clb=6.3m/s t=-13.3C h=-1.0% p=-1.0hPa 403.211 MHz Type=DFM17 ser=22035324 Radiosonde
WB7NNFD220353242022-12-06 11:20:0747.683-117.575110523259Clb=6.3m/s t=-12.8C h=-1.0% p=-1.0hPa 403.204 MHz Type=DFM17 ser=22035324 Radiosonde
KA7FVVD220353242022-12-06 11:19:5847.6831-117.575134593246Clb=5.1m/s t=-12.7C h=-1.0% p=-1.0hPa 403.211 MHz Type=DFM17 ser=22035324 Radiosonde
WA7BFND220353242022-12-06 11:19:4247.6842-117.578115703159Clb=3.7m/s t=-12.2C h=-1.0% p=-1.0hPa 403.207 MHz Type=DFM17 ser=22035324 Radiosonde
KA7FVVD220353242022-12-06 11:19:2747.6855-117.582146673066Clb=6.4m/s t=-11.5C h=-1.0% p=-1.0hPa 403.211 MHz Type=DFM17 ser=22035324 Radiosonde
WA7BFND220353242022-12-06 11:19:1147.6868-117.584133522967Clb=7.7m/s t=-11.0C h=-1.0% p=-1.0hPa 403.207 MHz Type=DFM17 ser=22035324 Radiosonde
WB7NNFD220353242022-12-06 11:19:0647.6877-117.586113502921Clb=6.5m/s t=-11.0C h=-1.0% p=-1.0hPa 403.204 MHz Type=DFM17 ser=22035324 Radiosonde
KA7FVVD220353242022-12-06 11:18:5647.6882-117.587125672884Clb=5.7m/s t=-10.7C h=-1.0% p=-1.0hPa 403.211 MHz Type=DFM17 ser=22035324 Radiosonde
WA7BFND220353242022-12-06 11:18:4047.6894-117.589131352786Clb=4.7m/s t=-10.2C h=-1.0% p=-1.0hPa 403.207 MHz Type=DFM17 ser=22035324 Radiosonde
KA7FVVD220353242022-12-06 11:18:2547.69-117.59297462690Clb=6.2m/s t=-9.6C h=-1.0% p=-1.0hPa 403.211 MHz Type=DFM17 ser=22035324 Radiosonde
WA7BFND220353242022-12-06 11:18:0947.6906-117.594121312590Clb=6.0m/s t=-9.0C h=-1.0% p=-1.0hPa 403.207 MHz Type=DFM17 ser=22035324 Radiosonde
KA7FVVD220353242022-12-06 11:17:5447.6908-117.597100502500Clb=9.0m/s t=-8.5C h=-1.0% p=-1.0hPa 403.211 MHz Type=DFM17 ser=22035324 Radiosonde
WA7BFND220353242022-12-06 11:17:3847.6909-117.59975262406Clb=4.1m/s t=-8.1C h=-1.0% p=-1.0hPa 403.207 MHz Type=DFM17 ser=22035324 Radiosonde
KA7FVVD220353242022-12-06 11:17:3347.6908-117.60166282318Clb=5.2m/s t=-7.7C h=-1.0% p=-1.0hPa 403.211 MHz Type=DFM17 ser=22035324 Radiosonde
WA7BFND220353242022-12-06 11:17:2547.6905-117.60459282215Clb=4.4m/s t=-7.5C h=-1.0% p=-1.0hPa 403.207 MHz Type=DFM17 ser=22035324 Radiosonde
KA7FVVD220353242022-12-06 11:17:0947.6905-117.60551152141Clb=5.1m/s t=-7.5C h=-1.0% p=-1.0hPa 403.211 MHz Type=DFM17 ser=22035324 Radiosonde
WA7BFND220353242022-12-06 11:16:4647.6905-117.607117112042Clb=5.3m/s t=-7.4C h=-1.0% p=-1.0hPa 403.207 MHz Type=DFM17 ser=22035324 Radiosonde
KA7FVVD220353242022-12-06 11:16:2747.6905-117.60868111967Clb=4.7m/s t=-7.5C h=-1.0% p=-1.0hPa 403.211 MHz Type=DFM17 ser=22035324 Radiosonde
WA7BFND220353242022-12-06 11:16:0547.69-117.6170261864Clb=7.4m/s t=-7.6C h=-1.0% p=-1.0hPa 403.207 MHz Type=DFM17 ser=22035324 Radiosonde
KA7FVVD220353242022-12-06 11:15:5047.6898-117.61144261788Clb=7.0m/s t=-7.4C h=-1.0% p=-1.0hPa 403.211 MHz Type=DFM17 ser=22035324 Radiosonde
WA7BFND220353242022-12-06 11:15:3347.6893-117.61380481691Clb=5.8m/s t=-7.6C h=-1.0% p=-1.0hPa 403.207 MHz Type=DFM17 ser=22035324 Radiosonde
KA7FVVD220353242022-12-06 11:15:1947.6886-117.61680481602Clb=4.8m/s t=-7.4C h=-1.0% p=-1.0hPa 403.211 MHz Type=DFM17 ser=22035324 Radiosonde
WA7BFND220353242022-12-06 11:15:0547.6882-117.61869501509Clb=5.0m/s t=-7.4C h=-1.0% p=-1.0hPa 403.207 MHz Type=DFM17 ser=22035324 Radiosonde
KA7FVVD220353242022-12-06 11:14:4847.6877-117.6280201433Clb=5.1m/s t=-7.4C h=-1.0% p=-1.0hPa 403.211 MHz Type=DFM17 ser=22035324 Radiosonde
KA7FVVD220353242022-12-06 11:14:1947.6862-117.62239201271Clb=5.3m/s t=-11.5C h=-1.0% p=-1.0hPa 403.211 MHz Type=DFM17 ser=22035324 Radiosonde